Time;durP1;ratioP1;P1;durP2;ratioP2;P2;SDS_P1;SDS_P2;PMS_P1;PMS_P2;Temp;Humidity;BMP_temperature;BMP_pressure;BME280_temperature;BME280_humidity;BME280_pressure;Samples;Min_cycle;Max_cycle;Signal;HPM_P1;HPM_P2
2021/06/28 00:00:42;;;;;;;13.20;9.20;;;18.50;99.90;;;;;;5030450;28;20060;-75
2021/06/28 00:03:07;;;;;;;19.90;10.30;;;18.60;99.90;;;;;;5048496;28;20041;-75
2021/06/28 00:05:33;;;;;;;15.55;9.57;;;18.60;99.90;;;;;;5033802;28;20025;-75
2021/06/28 00:07:59;;;;;;;16.95;10.20;;;18.60;99.90;;;;;;5033270;28;20078;-75
2021/06/28 00:10:27;;;;;;;19.23;10.00;;;18.70;99.90;;;;;;5031407;28;20060;-77
2021/06/28 00:12:54;;;;;;;17.10;10.25;;;18.70;99.90;;;;;;5046079;28;20017;-75
2021/06/28 00:15:24;;;;;;;12.68;9.32;;;18.60;99.90;;;;;;5033488;28;20036;-76
2021/06/28 00:17:50;;;;;;;15.68;9.85;;;18.70;99.90;;;;;;5030075;28;20371;-76
2021/06/28 00:20:17;;;;;;;14.65;9.73;;;18.70;99.90;;;;;;5021937;28;20021;-76
2021/06/28 00:22:44;;;;;;;19.17;10.20;;;18.60;99.90;;;;;;5033670;28;20033;-76
2021/06/28 00:25:12;;;;;;;15.05;10.60;;;18.70;99.90;;;;;;5031993;28;20033;-76
2021/06/28 00:27:42;;;;;;;19.48;10.48;;;18.60;99.90;;;;;;5032221;28;20105;-76
2021/06/28 00:30:10;;;;;;;18.02;11.27;;;18.60;99.90;;;;;;5032946;28;20029;-76
2021/06/28 00:32:37;;;;;;;17.92;10.65;;;18.60;99.90;;;;;;5028475;28;20048;-76
2021/06/28 00:35:04;;;;;;;15.25;10.05;;;18.60;99.90;;;;;;5031603;28;20113;-76
2021/06/28 00:37:29;;;;;;;16.60;9.88;;;18.60;99.90;;;;;;5033268;28;20026;-76
2021/06/28 00:39:55;;;;;;;17.83;9.77;;;18.60;99.90;;;;;;5032120;28;20024;-76
2021/06/28 00:42:24;;;;;;;18.55;11.13;;;18.60;99.90;;;;;;5032934;28;20022;-76
2021/06/28 00:44:50;;;;;;;23.20;10.52;;;18.60;99.90;;;;;;5032839;28;20052;-76
2021/06/28 00:47:16;;;;;;;16.70;10.23;;;18.60;99.90;;;;;;5032904;28;20390;-76
2021/06/28 00:49:42;;;;;;;15.38;9.68;;;18.50;99.90;;;;;;5033231;28;20048;-76
2021/06/28 00:52:09;;;;;;;16.52;10.15;;;18.60;99.90;;;;;;5030841;28;20042;-76
2021/06/28 00:54:35;;;;;;;19.13;10.57;;;18.60;99.90;;;;;;5031550;28;20489;-76
2021/06/28 00:57:02;;;;;;;14.93;10.25;;;18.60;99.90;;;;;;5032969;28;20018;-76
2021/06/28 00:59:31;;;;;;;13.23;9.45;;;18.60;99.90;;;;;;5033021;28;20500;-76
2021/06/28 01:01:58;;;;;;;17.27;10.65;;;18.60;99.90;;;;;;5028216;28;20064;-76
2021/06/28 01:04:24;;;;;;;17.48;10.02;;;18.60;99.90;;;;;;5031049;28;20490;-76
2021/06/28 01:06:50;;;;;;;17.17;10.27;;;18.60;99.90;;;;;;5033105;28;20040;-76
2021/06/28 01:09:15;;;;;;;14.75;9.88;;;18.60;99.90;;;;;;5031998;28;20030;-76
2021/06/28 01:11:41;;;;;;;14.05;9.93;;;18.60;99.90;;;;;;5031959;28;20032;-76
2021/06/28 01:14:07;;;;;;;15.98;10.27;;;18.60;99.90;;;;;;5032823;28;20033;-76
2021/06/28 01:16:33;;;;;;;16.05;10.48;;;18.60;99.90;;;;;;5029830;28;20086;-76
2021/06/28 01:18:59;;;;;;;14.63;10.10;;;18.60;99.90;;;;;;5031731;28;20041;-76
2021/06/28 01:21:28;;;;;;;16.00;10.15;;;18.60;99.90;;;;;;5048541;28;20032;-76
2021/06/28 01:23:55;;;;;;;17.85;10.68;;;18.50;99.90;;;;;;5033641;28;20569;-76
2021/06/28 01:26:21;;;;;;;20.25;11.23;;;18.50;99.90;;;;;;5035881;28;20044;-75
2021/06/28 01:28:46;;;;;;;17.17;11.10;;;18.50;99.90;;;;;;5036556;28;20507;-76
2021/06/28 01:31:13;;;;;;;20.65;11.10;;;18.50;99.90;;;;;;5045860;28;20385;-75
2021/06/28 01:33:39;;;;;;;17.35;10.40;;;18.50;99.90;;;;;;5032975;28;20029;-75
2021/06/28 01:36:06;;;;;;;22.88;11.88;;;18.40;99.90;;;;;;5037432;28;20030;-75
2021/06/28 01:38:32;;;;;;;17.97;11.80;;;18.40;99.90;;;;;;5051189;28;20040;-75
2021/06/28 01:40:58;;;;;;;18.05;12.40;;;18.30;99.90;;;;;;5040992;28;20272;-75
2021/06/28 01:43:24;;;;;;;22.67;11.35;;;18.30;99.90;;;;;;5035441;28;20029;-75
2021/06/28 01:45:51;;;;;;;18.45;11.38;;;18.30;99.90;;;;;;5041631;28;20039;-75
2021/06/28 01:48:17;;;;;;;21.08;11.85;;;18.30;99.90;;;;;;5034827;28;20482;-76
2021/06/28 01:50:43;;;;;;;18.52;12.13;;;18.40;99.90;;;;;;5034643;28;20025;-75
2021/06/28 01:53:09;;;;;;;15.80;11.13;;;18.30;99.90;;;;;;5036710;28;20034;-75
2021/06/28 01:55:36;;;;;;;14.45;10.18;;;18.30;99.90;;;;;;5047814;28;20359;-76
2021/06/28 01:58:04;;;;;;;22.10;10.50;;;18.40;99.90;;;;;;5045199;28;20547;-75
2021/06/28 02:00:54;;;;;;;14.93;11.35;;;18.40;99.90;;;;;;5046260;28;20290;-75
2021/06/28 02:03:23;;;;;;;18.52;11.13;;;18.40;99.90;;;;;;5050180;28;20041;-76
2021/06/28 02:05:57;;;;;;;15.20;10.32;;;18.40;99.90;;;;;;5035352;28;20030;-75
2021/06/28 02:08:25;;;;;;;17.75;10.43;;;18.40;99.90;;;;;;5034043;28;20060;-77
2021/06/28 02:10:53;;;;;;;16.17;9.98;;;18.40;99.90;;;;;;5039908;28;20037;-77
2021/06/28 02:13:25;;;;;;;13.48;9.90;;;18.40;99.90;;;;;;5035860;28;20040;-76
2021/06/28 02:15:53;;;;;;;16.20;11.02;;;18.40;99.90;;;;;;5036208;28;20036;-76
2021/06/28 02:18:19;;;;;;;14.55;10.13;;;18.30;99.90;;;;;;5034917;28;20026;-76
2021/06/28 02:20:44;;;;;;;14.77;10.52;;;18.30;99.90;;;;;;5035053;28;20026;-77
2021/06/28 02:23:25;;;;;;;18.25;9.75;;;18.30;99.90;;;;;;5032146;28;20031;-76
2021/06/28 02:25:57;;;;;;;15.32;9.40;;;18.30;99.90;;;;;;5033291;28;20040;-76
2021/06/28 02:28:25;;;;;;;15.18;10.75;;;18.30;99.90;;;;;;5041711;28;20516;-76
2021/06/28 02:30:51;;;;;;;20.17;11.05;;;18.30;99.90;;;;;;5052020;28;20037;-75
2021/06/28 02:33:17;;;;;;;15.07;10.85;;;18.20;99.90;;;;;;5055591;28;20045;-76
2021/06/28 02:35:42;;;;;;;16.20;11.10;;;18.20;99.90;;;;;;5036349;28;20040;-75
2021/06/28 02:38:08;;;;;;;13.30;9.77;;;18.20;99.90;;;;;;5035840;28;20030;-75
2021/06/28 02:40:34;;;;;;;15.73;10.63;;;18.20;99.90;;;;;;5029040;28;20039;-75
2021/06/28 02:42:59;;;;;;;18.67;10.75;;;18.20;99.90;;;;;;5028805;28;20461;-75
2021/06/28 02:45:25;;;;;;;16.05;10.60;;;18.20;99.90;;;;;;5035180;28;20033;-75
2021/06/28 02:47:51;;;;;;;14.88;9.90;;;18.20;99.90;;;;;;5035010;28;20028;-75
2021/06/28 02:50:16;;;;;;;16.77;11.07;;;18.20;99.90;;;;;;5034283;28;20124;-75
2021/06/28 02:52:43;;;;;;;15.85;9.63;;;18.20;99.90;;;;;;5035601;28;20128;-75
2021/06/28 02:55:10;;;;;;;17.27;11.13;;;18.10;99.90;;;;;;5035011;28;20030;-75
2021/06/28 02:57:36;;;;;;;15.15;10.20;;;18.10;99.90;;;;;;5034197;28;20060;-76
2021/06/28 03:00:09;;;;;;;16.05;10.52;;;18.10;99.90;;;;;;5029236;28;20028;-75
2021/06/28 03:02:35;;;;;;;14.05;10.27;;;18.10;99.90;;;;;;5036276;28;20038;-75
2021/06/28 03:05:02;;;;;;;16.13;11.10;;;18.00;99.90;;;;;;5035232;28;20073;-75
2021/06/28 03:07:28;;;;;;;14.10;10.52;;;18.00;99.90;;;;;;5035069;28;20038;-75
2021/06/28 03:09:53;;;;;;;18.00;11.80;;;18.00;99.90;;;;;;5034745;28;20029;-76
2021/06/28 03:12:19;;;;;;;18.70;12.77;;;17.90;99.90;;;;;;5033735;28;20143;-76
2021/06/28 03:14:45;;;;;;;25.63;13.57;;;17.90;99.90;;;;;;5029960;28;20033;-76
2021/06/28 03:17:10;;;;;;;19.65;12.75;;;17.90;99.90;;;;;;5034640;28;20029;-76
2021/06/28 03:19:36;;;;;;;20.77;12.32;;;17.90;99.90;;;;;;5025091;28;20061;-76
2021/06/28 03:22:02;;;;;;;19.48;12.13;;;17.90;99.90;;;;;;5034902;28;20501;-76
2021/06/28 03:24:28;;;;;;;19.20;11.23;;;17.90;99.90;;;;;;5032978;28;20048;-75
2021/06/28 03:26:53;;;;;;;18.02;12.13;;;17.90;99.90;;;;;;5050474;28;20389;-75
2021/06/28 03:29:19;;;;;;;12.75;11.18;;;17.90;99.90;;;;;;5035064;28;20450;-76
2021/06/28 03:31:44;;;;;;;17.83;12.13;;;17.90;99.90;;;;;;5031491;28;20033;-76
2021/06/28 03:34:10;;;;;;;15.90;10.90;;;17.90;99.90;;;;;;5028494;28;20409;-76
2021/06/28 03:36:36;;;;;;;19.83;12.73;;;17.80;99.90;;;;;;5033236;28;20036;-76
2021/06/28 03:39:02;;;;;;;15.77;10.05;;;17.80;99.90;;;;;;5034805;28;20032;-76
2021/06/28 03:41:27;;;;;;;17.48;10.73;;;17.80;99.90;;;;;;5034336;28;20447;-76
2021/06/28 03:43:53;;;;;;;17.23;12.07;;;17.80;99.90;;;;;;5034132;28;20037;-76
2021/06/28 03:46:19;;;;;;;18.80;11.70;;;17.80;99.90;;;;;;5033549;28;20389;-76
2021/06/28 03:48:44;;;;;;;17.45;11.73;;;17.90;99.90;;;;;;5029402;28;20402;-77
2021/06/28 03:51:10;;;;;;;19.08;12.38;;;17.90;99.90;;;;;;5024233;28;20488;-77
2021/06/28 03:53:36;;;;;;;20.27;12.38;;;17.90;99.90;;;;;;5032796;28;20036;-77
2021/06/28 03:56:06;;;;;;;17.98;12.45;;;17.90;99.90;;;;;;5033238;28;20124;-76
2021/06/28 03:58:44;;;;;;;18.85;13.48;;;17.90;99.90;;;;;;5034315;28;20099;-76
2021/06/28 04:01:09;;;;;;;;;;;17.90;99.90;;;;;;5035122;28;20026;-76
2021/06/28 04:03:36;;;;;;;17.88;11.38;;;17.90;99.90;;;;;;5025558;28;19916;-77
2021/06/28 04:06:05;;;;;;;23.08;12.77;;;17.90;99.90;;;;;;5043042;28;20037;-76
2021/06/28 04:08:31;;;;;;;20.13;13.07;;;17.90;99.90;;;;;;5040490;28;20029;-76
2021/06/28 04:10:57;;;;;;;21.80;14.30;;;17.90;99.90;;;;;;5032232;28;20025;-77
2021/06/28 04:13:23;;;;;;;24.08;14.30;;;17.90;99.90;;;;;;5033546;28;20029;-76
2021/06/28 04:15:49;;;;;;;21.65;13.10;;;17.90;99.90;;;;;;5034025;28;20489;-76
2021/06/28 04:18:15;;;;;;;19.85;12.38;;;17.90;99.90;;;;;;5034594;28;20037;-76
2021/06/28 04:20:41;;;;;;;26.17;15.23;;;17.90;99.90;;;;;;5033922;28;20056;-76
2021/06/28 04:23:07;;;;;;;24.40;14.27;;;17.90;99.90;;;;;;5034447;28;20032;-77
2021/06/28 04:25:33;;;;;;;22.23;13.90;;;17.90;99.90;;;;;;5033683;28;20417;-77
2021/06/28 04:27:59;;;;;;;23.80;14.45;;;18.00;99.90;;;;;;5034490;28;20091;-77
2021/06/28 04:30:24;;;;;;;25.65;14.23;;;18.00;99.90;;;;;;5034676;28;20025;-76
2021/06/28 04:32:51;;;;;;;20.65;14.15;;;18.10;99.90;;;;;;5033268;28;20037;-75
2021/06/28 04:35:22;;;;;;;18.05;13.77;;;18.10;99.90;;;;;;5037920;28;20040;-76
2021/06/28 04:37:49;;;;;;;20.70;13.95;;;18.10;99.90;;;;;;5034625;28;20053;-76
2021/06/28 04:40:17;;;;;;;23.85;14.15;;;18.10;99.90;;;;;;5034280;28;20021;-76
2021/06/28 04:42:43;;;;;;;21.88;14.98;;;18.10;99.90;;;;;;5034107;28;20099;-76
2021/06/28 04:45:10;;;;;;;25.20;14.52;;;18.10;99.90;;;;;;5030094;28;20034;-76
2021/06/28 04:47:36;;;;;;;21.50;15.13;;;18.20;99.90;;;;;;5015565;28;20105;-76
2021/06/28 04:50:04;;;;;;;21.92;15.00;;;18.20;99.90;;;;;;5031798;28;20068;-76
2021/06/28 04:52:33;;;;;;;18.75;13.95;;;18.30;99.90;;;;;;5034090;28;20046;-76
2021/06/28 04:55:00;;;;;;;29.30;15.57;;;18.30;99.90;;;;;;5034779;28;20022;-77
2021/06/28 04:57:27;;;;;;;25.47;15.07;;;18.40;99.90;;;;;;5035878;28;20032;-76
2021/06/28 04:59:53;;;;;;;21.25;15.05;;;18.40;99.90;;;;;;5038736;28;20267;-77
2021/06/28 05:02:19;;;;;;;24.63;15.23;;;18.40;99.90;;;;;;5037033;28;20033;-76
2021/06/28 05:04:47;;;;;;;21.95;15.10;;;18.50;99.90;;;;;;5040969;28;20097;-76
2021/06/28 05:07:13;;;;;;;22.38;15.20;;;18.50;99.90;;;;;;5039907;28;20036;-76
2021/06/28 05:09:39;;;;;;;22.27;15.00;;;18.60;99.90;;;;;;5052955;28;20029;-76
2021/06/28 05:12:05;;;;;;;22.90;15.50;;;18.60;99.90;;;;;;5053311;28;20042;-75
2021/06/28 05:14:30;;;;;;;24.45;16.27;;;18.70;99.90;;;;;;5056162;28;20029;-76
2021/06/28 05:16:56;;;;;;;22.05;15.98;;;18.70;99.90;;;;;;5057455;28;20025;-76
2021/06/28 05:19:21;;;;;;;21.10;16.00;;;18.70;99.90;;;;;;5054694;28;20041;-76
2021/06/28 05:21:47;;;;;;;26.92;15.77;;;18.80;99.90;;;;;;5054470;28;20033;-76
2021/06/28 05:24:13;;;;;;;23.83;15.88;;;18.80;99.90;;;;;;5056841;28;20040;-76
2021/06/28 05:26:38;;;;;;;23.38;15.48;;;18.80;99.90;;;;;;5055433;28;20041;-76
2021/06/28 05:29:04;;;;;;;25.13;16.48;;;18.90;99.90;;;;;;5055422;28;20009;-76
2021/06/28 05:31:29;;;;;;;22.70;16.25;;;18.90;99.90;;;;;;5055526;28;20025;-77
2021/06/28 05:33:55;;;;;;;22.83;16.25;;;19.00;99.90;;;;;;5055566;28;20041;-76
2021/06/28 05:36:22;;;;;;;26.58;17.17;;;19.00;99.90;;;;;;5053752;28;20022;-77
2021/06/28 05:38:47;;;;;;;27.88;18.02;;;19.10;99.90;;;;;;5054016;28;20037;-77
2021/06/28 05:41:16;;;;;;;23.45;17.00;;;19.10;99.90;;;;;;5059888;28;20120;-77
2021/06/28 05:43:41;;;;;;;25.55;16.35;;;19.20;99.90;;;;;;5076579;28;20037;-77
2021/06/28 05:46:07;;;;;;;24.50;14.82;;;19.30;99.90;;;;;;5065986;28;20033;-77
2021/06/28 05:48:33;;;;;;;21.58;15.25;;;19.30;99.90;;;;;;5074727;28;20072;-77
2021/06/28 05:50:58;;;;;;;19.92;14.85;;;19.40;99.90;;;;;;5070168;28;20045;-77
2021/06/28 05:53:24;;;;;;;25.60;15.63;;;19.40;99.90;;;;;;5050370;28;20490;-77
2021/06/28 05:55:51;;;;;;;22.15;11.40;;;19.50;99.90;;;;;;5047079;28;20026;-77
2021/06/28 05:58:17;;;;;;;20.10;15.13;;;19.50;99.90;;;;;;5047593;28;20026;-77
2021/06/28 06:00:43;;;;;;;21.35;15.70;;;19.60;99.90;;;;;;5055001;28;20052;-78
2021/06/28 06:03:09;;;;;;;24.02;15.98;;;19.70;99.90;;;;;;5062009;28;20205;-77
2021/06/28 06:05:34;;;;;;;20.95;14.82;;;19.90;99.90;;;;;;5057840;28;20029;-77
2021/06/28 06:08:00;;;;;;;20.10;14.70;;;20.10;99.90;;;;;;5056941;28;20034;-77
2021/06/28 06:10:26;;;;;;;22.95;14.02;;;20.80;99.90;;;;;;5057506;28;20026;-76
2021/06/28 06:12:52;;;;;;;20.75;12.57;;;22.00;99.90;;;;;;5060331;28;20013;-77
2021/06/28 06:15:18;;;;;;;12.32;10.10;;;23.90;99.90;;;;;;5061619;28;20018;-77
2021/06/28 06:17:45;;;;;;;14.07;10.63;;;25.60;99.90;;;;;;5054084;28;20044;-77
2021/06/28 06:20:11;;;;;;;11.88;9.77;;;26.80;99.90;;;;;;5047367;28;20033;-77
2021/06/28 06:22:37;;;;;;;14.25;9.27;;;28.00;99.90;;;;;;5046237;28;20029;-76
2021/06/28 06:25:05;;;;;;;10.05;8.40;;;29.30;99.90;;;;;;5051699;28;20044;-77
2021/06/28 06:27:30;;;;;;;11.48;9.25;;;30.40;99.90;;;;;;5055536;28;20081;-77
2021/06/28 06:29:57;;;;;;;11.85;8.88;;;30.80;99.90;;;;;;5056733;28;20514;-75
2021/06/28 06:32:23;;;;;;;12.63;9.57;;;30.80;99.90;;;;;;5056686;28;20033;-77
2021/06/28 06:34:48;;;;;;;13.32;8.90;;;31.20;99.90;;;;;;5056964;28;20055;-76
2021/06/28 06:37:15;;;;;;;13.85;9.70;;;31.20;99.90;;;;;;5055228;28;20097;-77
2021/06/28 06:39:40;;;;;;;9.93;8.93;;;31.20;99.90;;;;;;5056368;28;20038;-74
2021/06/28 06:42:06;;;;;;;11.93;9.95;;;30.90;99.90;;;;;;5056468;28;20329;-75
2021/06/28 06:44:32;;;;;;;14.45;9.15;;;31.20;99.90;;;;;;5057526;28;20025;-75
2021/06/28 06:46:58;;;;;;;11.13;9.50;;;30.90;99.90;;;;;;5054746;28;20040;-75
2021/06/28 06:49:25;;;;;;;18.42;10.88;;;29.70;99.90;;;;;;5059271;28;20048;-76
2021/06/28 06:51:51;;;;;;;;;;;28.70;99.90;;;;;;5052637;28;20041;-76
2021/06/28 06:54:16;;;;;;;13.52;10.23;;;27.90;99.90;;;;;;5047424;28;19924;-76
2021/06/28 06:56:42;;;;;;;10.30;9.07;;;27.20;99.90;;;;;;5056402;28;20036;-76
2021/06/28 06:59:08;;;;;;;15.35;10.27;;;26.50;99.90;;;;;;5055987;28;20071;-76
2021/06/28 07:01:34;;;;;;;19.80;11.68;;;26.00;99.90;;;;;;5054377;28;20025;-76
2021/06/28 07:04:00;;;;;;;13.45;11.25;;;25.40;99.90;;;;;;5055129;28;20036;-75
2021/06/28 07:06:26;;;;;;;14.68;9.93;;;25.00;99.90;;;;;;5055199;28;20044;-77
2021/06/28 07:08:52;;;;;;;16.88;11.23;;;25.00;99.90;;;;;;5054481;28;20021;-77
2021/06/28 07:11:18;;;;;;;15.52;8.93;;;24.80;99.90;;;;;;5053698;28;20029;-76
2021/06/28 07:13:49;;;;;;;18.55;10.55;;;24.40;99.90;;;;;;5055594;28;20049;-76
2021/06/28 07:16:16;;;;;;;17.83;11.00;;;24.20;99.90;;;;;;5054666;28;20377;-77
2021/06/28 07:18:42;;;;;;;14.15;11.50;;;23.80;99.90;;;;;;5054315;28;20022;-77
2021/06/28 07:21:07;;;;;;;12.82;11.00;;;24.20;99.90;;;;;;5054584;28;20402;-77
2021/06/28 07:23:33;;;;;;;14.05;10.32;;;25.30;99.90;;;;;;5051673;28;20033;-74
2021/06/28 07:25:59;;;;;;;12.18;10.07;;;26.60;99.90;;;;;;5054248;28;20013;-76
2021/06/28 07:28:25;;;;;;;13.60;9.90;;;27.40;99.90;;;;;;5052372;28;20030;-76
2021/06/28 07:30:51;;;;;;;11.93;8.68;;;27.50;99.90;;;;;;5052964;28;20017;-77
2021/06/28 07:33:18;;;;;;;10.10;8.98;;;28.00;99.90;;;;;;5050983;28;20033;-77
2021/06/28 07:35:44;;;;;;;31.60;12.63;;;28.70;99.90;;;;;;5050859;28;20013;-81
2021/06/28 07:38:10;;;;;;;13.05;10.52;;;29.10;99.90;;;;;;5049446;28;20037;-77
2021/06/28 07:40:36;;;;;;;12.13;9.82;;;29.30;99.90;;;;;;5057103;28;20037;-74
2021/06/28 07:43:01;;;;;;;11.27;8.10;;;29.40;99.90;;;;;;5049570;28;20045;-77
2021/06/28 07:45:27;;;;;;;14.73;11.00;;;29.00;99.90;;;;;;5050033;28;20101;-77
2021/06/28 07:47:53;;;;;;;11.23;8.20;;;28.30;99.90;;;;;;5051737;28;20025;-83
2021/06/28 07:50:19;;;;;;;11.52;9.90;;;27.70;99.90;;;;;;5049866;28;20056;-78
2021/06/28 07:52:45;;;;;;;12.77;10.50;;;27.10;99.90;;;;;;5047393;28;20059;-77
2021/06/28 07:55:13;;;;;;;13.68;10.80;;;26.50;99.90;;;;;;5034884;28;20104;-78
2021/06/28 07:57:38;;;;;;;14.98;11.43;;;26.10;99.90;;;;;;5032213;28;20029;-79
2021/06/28 08:00:11;;;;;;;14.23;10.20;;;25.90;99.90;;;;;;5044361;28;20105;-80
2021/06/28 08:02:37;;;;;;;13.57;10.43;;;25.30;99.90;;;;;;5048390;28;20037;-79
2021/06/28 08:05:05;;;;;;;14.55;10.90;;;25.50;99.90;;;;;;5037662;28;20085;-80
2021/06/28 08:07:31;;;;;;;12.35;10.45;;;26.00;99.90;;;;;;5037128;28;20163;-80
2021/06/28 08:09:56;;;;;;;14.23;11.05;;;26.20;99.90;;;;;;5034119;28;20056;-78
2021/06/28 08:12:22;;;;;;;9.65;8.48;;;26.10;99.90;;;;;;5034248;28;20022;-78
2021/06/28 08:14:47;;;;;;;18.92;11.68;;;26.40;99.90;;;;;;5036150;28;20017;-78
2021/06/28 08:17:13;;;;;;;14.60;11.35;;;26.60;99.90;;;;;;5029172;28;20033;-77
2021/06/28 08:19:42;;;;;;;15.40;11.27;;;26.50;99.90;;;;;;5033633;28;20497;-77
2021/06/28 08:22:09;;;;;;;13.02;10.20;;;26.00;99.90;;;;;;5035915;28;20045;-78
2021/06/28 08:24:35;;;;;;;16.55;11.05;;;25.90;99.90;;;;;;5033973;28;20021;-78
2021/06/28 08:27:00;;;;;;;16.38;10.15;;;26.20;99.90;;;;;;5034032;28;20484;-78
2021/06/28 08:29:26;;;;;;;11.68;9.38;;;26.60;99.90;;;;;;5032006;28;20040;-78
2021/06/28 08:31:52;;;;;;;11.07;9.88;;;26.90;99.90;;;;;;5035676;28;20049;-78
2021/06/28 08:34:17;;;;;;;16.27;8.90;;;27.00;99.90;;;;;;5034439;28;20017;-78
2021/06/28 08:36:45;;;;;;;15.65;9.63;;;27.10;99.90;;;;;;5034690;28;20359;-78
2021/06/28 08:39:12;;;;;;;12.55;11.05;;;27.20;99.90;;;;;;5037720;28;20033;-77
2021/06/28 08:41:42;;;;;;;12.93;11.05;;;27.30;99.90;;;;;;5034541;28;20025;-76
2021/06/28 08:44:08;;;;;;;9.95;8.95;;;27.50;99.90;;;;;;5034718;28;20048;-78
2021/06/28 08:46:34;;;;;;;12.80;9.50;;;27.70;99.90;;;;;;5031767;28;20021;-78
2021/06/28 08:49:00;;;;;;;9.27;8.35;;;27.90;99.90;;;;;;5040480;28;20033;-79
2021/06/28 08:51:25;;;;;;;11.27;9.45;;;28.20;99.90;;;;;;5033996;28;20104;-77
2021/06/28 08:53:54;;;;;;;10.45;8.73;;;28.20;99.90;;;;;;5031443;28;20467;-80
2021/06/28 08:56:21;;;;;;;11.25;8.82;;;27.80;99.90;;;;;;5030495;28;20034;-80
2021/06/28 08:58:46;;;;;;;11.85;9.32;;;27.50;99.90;;;;;;5030396;28;20026;-79
2021/06/28 09:01:12;;;;;;;15.02;11.27;;;27.20;99.90;;;;;;5031931;28;20029;-80
2021/06/28 09:03:38;;;;;;;15.27;10.93;;;26.70;99.90;;;;;;5033877;28;20092;-79
2021/06/28 09:06:10;;;;;;;13.57;10.18;;;26.50;99.90;;;;;;5034354;28;20033;-79
2021/06/28 09:08:36;;;;;;;15.63;12.05;;;26.40;99.90;;;;;;5031318;28;20127;-79
2021/06/28 09:11:03;;;;;;;16.67;10.93;;;26.40;99.90;;;;;;5028532;28;20505;-79
2021/06/28 09:13:43;;;;;;;12.73;10.38;;;26.40;99.90;;;;;;5033877;28;20021;-79
2021/06/28 09:16:18;;;;;;;14.55;10.27;;;26.30;99.90;;;;;;5033102;28;20113;-80
2021/06/28 09:19:15;;;;;;;14.57;9.45;;;26.40;99.90;;;;;;5030419;28;20537;-78
2021/06/28 09:21:46;;;;;;;11.73;8.90;;;26.90;99.90;;;;;;5027832;28;20041;-79
2021/06/28 09:24:37;;;;;;;7.75;6.97;;;27.10;99.90;;;;;;5017197;28;20029;-79
2021/06/28 09:27:12;;;;;;;12.30;8.70;;;27.20;99.90;;;;;;5026099;28;20025;-79
2021/06/28 09:29:47;;;;;;;13.30;9.90;;;27.10;99.90;;;;;;5030996;28;20046;-78
2021/06/28 09:32:17;;;;;;;15.48;9.77;;;26.80;99.90;;;;;;5028722;28;20045;-81
2021/06/28 09:34:45;;;;;;;9.38;8.40;;;26.50;99.90;;;;;;5034218;28;20405;-80
2021/06/28 09:37:13;;;;;;;10.57;8.02;;;26.50;99.90;;;;;;5043724;28;20025;-77
2021/06/28 09:39:41;;;;;;;11.10;7.43;;;26.60;99.90;;;;;;5037388;28;20355;-78
2021/06/28 09:42:07;;;;;;;10.02;8.90;;;26.90;99.90;;;;;;5031051;28;20025;-77
2021/06/28 09:44:34;;;;;;;11.70;8.93;;;27.00;99.90;;;;;;5033287;28;20087;-78
2021/06/28 09:47:09;;;;;;;10.15;8.55;;;26.90;99.90;;;;;;5044123;28;20128;-78
2021/06/28 09:49:35;;;;;;;15.65;11.40;;;26.60;99.90;;;;;;5032459;28;20044;-77
2021/06/28 09:52:02;;;;;;;16.23;12.18;;;26.10;99.90;;;;;;5039360;28;20030;-77
2021/06/28 09:54:27;;;;;;;13.20;11.80;;;25.70;99.90;;;;;;5037105;28;20022;-76
2021/06/28 09:56:54;;;;;;;14.05;10.88;;;25.40;99.90;;;;;;5036658;28;20040;-80
2021/06/28 09:59:39;;;;;;;15.75;10.77;;;25.10;99.90;;;;;;5035284;28;20032;-75
2021/06/28 10:02:26;;;;;;;18.80;11.50;;;25.00;99.90;;;;;;5030338;28;20401;-74
2021/06/28 10:05:12;;;;;;;13.90;12.02;;;24.90;99.90;;;;;;5028140;28;20159;-80
2021/06/28 10:07:39;;;;;;;15.32;12.32;;;25.00;99.90;;;;;;5029413;28;20026;-79
2021/06/28 10:10:24;;;;;;;;;;;24.80;99.90;;;;;;5033072;28;20525;-80
2021/06/28 10:12:52;;;;;;;12.50;10.00;;;24.70;99.90;;;;;;5033751;28;19963;-76
2021/06/28 10:15:20;;;;;;;13.25;10.55;;;24.40;99.90;;;;;;5034952;28;20037;-78
2021/06/28 10:17:48;;;;;;;11.98;10.10;;;24.40;99.90;;;;;;5022568;28;20034;-76
2021/06/28 10:20:17;;;;;;;11.82;10.07;;;24.40;99.90;;;;;;5032926;28;20041;-76
2021/06/28 10:22:44;;;;;;;16.35;11.77;;;24.30;99.90;;;;;;5027661;28;20026;-79
2021/06/28 10:25:12;;;;;;;12.05;10.38;;;24.20;99.90;;;;;;5027585;28;20393;-79
2021/06/28 10:27:38;;;;;;;19.88;10.90;;;24.20;99.90;;;;;;5031254;28;20025;-80
2021/06/28 10:30:08;;;;;;;17.83;9.63;;;24.20;99.90;;;;;;5031834;28;20044;-79
2021/06/28 10:32:34;;;;;;;11.45;9.45;;;24.20;99.90;;;;;;5028760;28;20052;-78
2021/06/28 10:35:00;;;;;;;8.88;7.90;;;24.20;99.90;;;;;;5028747;28;20128;-79
2021/06/28 10:37:46;;;;;;;10.90;7.80;;;24.10;99.90;;;;;;5034913;28;20064;-79
2021/06/28 10:40:14;;;;;;;11.95;8.52;;;24.10;99.90;;;;;;5032789;28;20693;-78
2021/06/28 10:42:44;;;;;;;8.57;7.22;;;24.10;99.90;;;;;;5024867;28;20103;-78
2021/06/28 10:45:17;;;;;;;9.70;7.68;;;24.10;99.90;;;;;;5028887;28;20041;-78
2021/06/28 10:48:06;;;;;;;8.82;6.75;;;24.10;99.90;;;;;;5028862;28;20108;-79
2021/06/28 10:50:51;;;;;;;7.55;5.70;;;24.10;99.90;;;;;;5026099;28;20025;-78
2021/06/28 10:53:32;;;;;;;7.47;6.70;;;24.10;99.90;;;;;;5026325;28;20087;-78
2021/06/28 10:58:57;;;;;;;10.57;7.63;;;24.20;99.90;;;;;;5029381;28;20103;-78
2021/06/28 11:01:39;;;;;;;11.82;8.45;;;24.20;99.90;;;;;;5026898;28;20485;-78
2021/06/28 11:04:10;;;;;;;11.13;8.52;;;24.20;99.90;;;;;;5026663;28;20067;-78
2021/06/28 11:06:43;;;;;;;13.60;9.52;;;24.20;99.90;;;;;;5027475;28;20037;-78
2021/06/28 11:09:10;;;;;;;12.05;9.60;;;24.20;99.90;;;;;;5030392;28;20569;-79
2021/06/28 11:11:48;;;;;;;;;;;24.30;99.90;;;;;;5029104;28;20040;-79
2021/06/28 11:14:20;;;;;;;11.63;9.15;;;24.20;99.90;;;;;;5045079;28;19909;-79
2021/06/28 11:17:07;;;;;;;10.90;9.18;;;24.20;99.90;;;;;;5034512;28;20048;-79
2021/06/28 11:19:54;;;;;;;15.02;10.35;;;24.20;99.90;;;;;;5029478;28;20083;-79
2021/06/28 11:22:45;;;;;;;12.95;10.00;;;24.30;99.90;;;;;;5030258;28;20032;-79
2021/06/28 11:25:26;;;;;;;11.93;9.10;;;24.40;99.90;;;;;;5048671;28;20041;-79
2021/06/28 11:27:58;;;;;;;14.68;10.30;;;24.40;99.90;;;;;;5033970;28;20021;-79
2021/06/28 11:30:26;;;;;;;19.67;10.88;;;24.30;99.90;;;;;;5033449;28;20064;-79
2021/06/28 11:33:05;;;;;;;19.80;11.32;;;24.30;99.90;;;;;;5030701;28;20041;-79
2021/06/28 11:35:34;;;;;;;15.63;11.32;;;24.20;99.90;;;;;;5033756;28;20030;-79
2021/06/28 11:38:28;;;;;;;18.30;12.25;;;24.20;99.90;;;;;;5033712;28;20037;-79
2021/06/28 11:40:57;;;;;;;18.80;11.70;;;24.20;99.90;;;;;;5033674;28;20481;-79
2021/06/28 11:43:51;;;;;;;15.25;11.20;;;24.20;99.90;;;;;;5033144;28;20371;-79
2021/06/28 11:46:17;;;;;;;17.48;12.02;;;24.20;99.90;;;;;;5017398;28;20030;-79
2021/06/28 11:48:48;;;;;;;15.30;11.23;;;24.10;99.90;;;;;;5035446;28;20087;-79
2021/06/28 11:51:25;;;;;;;16.52;11.93;;;24.00;99.90;;;;;;5034363;28;20037;-79
2021/06/28 11:53:58;;;;;;;15.63;8.55;;;23.90;99.90;;;;;;5031383;28;20068;-79
2021/06/28 11:56:31;;;;;;;9.75;8.02;;;23.80;99.90;;;;;;5029415;28;20037;-79
2021/06/28 11:58:59;;;;;;;12.32;8.52;;;23.80;99.90;;;;;;5033922;28;20029;-78
2021/06/28 12:01:32;;;;;;;9.75;7.97;;;23.80;99.90;;;;;;5031576;28;20017;-77
2021/06/28 12:03:59;;;;;;;14.32;10.40;;;23.70;99.90;;;;;;5038332;28;20033;-79
2021/06/28 12:06:36;;;;;;;13.70;10.90;;;23.70;99.90;;;;;;5031955;28;20090;-78
2021/06/28 12:09:35;;;;;;;15.82;12.73;;;23.70;99.90;;;;;;5037279;28;20039;-79
2021/06/28 12:12:10;;;;;;;19.05;13.43;;;23.70;99.90;;;;;;5032080;28;20088;-78
2021/06/28 12:14:48;;;;;;;12.48;10.55;;;23.60;99.90;;;;;;5031348;28;20103;-77
2021/06/28 12:17:24;;;;;;;16.33;12.43;;;23.60;99.90;;;;;;5044092;28;20022;-77
2021/06/28 12:20:01;;;;;;;12.35;9.32;;;23.60;99.90;;;;;;5031121;28;20068;-80
2021/06/28 12:22:30;;;;;;;15.75;12.27;;;23.60;99.90;;;;;;5022005;28;20033;-79
2021/06/28 12:25:11;;;;;;;19.70;11.43;;;23.60;99.90;;;;;;5031423;28;20363;-78
2021/06/28 12:27:39;;;;;;;13.20;10.18;;;23.70;99.90;;;;;;5032455;28;20051;-77
2021/06/28 12:30:08;;;;;;;16.58;12.70;;;23.70;99.90;;;;;;5030984;28;20029;-77
2021/06/28 12:33:07;;;;;;;22.20;12.93;;;23.70;99.90;;;;;;5026970;28;20043;-79
2021/06/28 12:35:33;;;;;;;17.42;11.57;;;23.70;99.90;;;;;;5011121;28;20042;-78
2021/06/28 12:38:01;;;;;;;14.85;12.82;;;23.80;99.90;;;;;;5027048;28;20048;-77
2021/06/28 12:40:32;;;;;;;15.05;11.35;;;23.80;99.90;;;;;;5033919;28;20026;-78